Pos.Doss.NomPrenomTempsVit.Moy.Allure Pos. catégCatégorie Points Club
1 7127 PHILIPPE PATRICK 00:32:52 17.71 00:03:23 1Vétérans 1 1000 JOG IN ATTITUDE
2 7029 VAN HEE THOMAS 00:33:14 17.51 00:03:26 1Séniors 994 MJ SPORT
3 7072 CHARLIER JULIEN 00:33:47 17.23 00:03:29 2Séniors 989 ENTREPARENTHESES
4 175 SCHOLZEN CHRISTOPHE 00:33:58 17.13 00:03:30 3Séniors 983 SOMJA RUNNING
5 2 BAAR GRÉGORY 00:34:19 16.96 00:03:32 4Séniors 978 SOMJA RUNNING
6 7025 CASTERMANS CHRISTOPHE 00:35:19 16.48 00:03:38 2Vétérans 1 972 ZLTC TRIATHONCLUB
7 7113 LECAT REMI 00:35:31 16.39 00:03:40 5Séniors 966 OCRBW
8 7060 CUIPERS FABRICE 00:35:43 16.29 00:03:41 3Vétérans 1 961 WATTS
9 7084 OLIVIER LAURENT 00:36:09 16.1 00:03:44 4Vétérans 1 955 CHALLENGE AVENIR
10 186 DEBATTY HERVE 00:36:30 15.95 00:03:46 5Vétérans 1 950
11 7002 FRISON DAVID 00:36:38 15.89 00:03:47 6Vétérans 1 944 OMEGA MJ SPORT
12 7065 VANEETVELD ANDY 00:37:07 15.68 00:03:50 6Séniors 939
13 7028 DEHIN REGINALD 00:37:34 15.49 00:03:52 7Séniors 933 MJ SPORT
14 7040 LARUE ARNAUD 00:37:36 15.48 00:03:53 8Séniors 927
15 14 GARIN YVES 00:37:41 15.44 00:03:53 7Vétérans 1 922 JOG IN ATTITUDE
16 180 PAQUES BENOÎT 00:37:54 15.36 00:03:54 9Séniors 916 RFCL
17 7077 ESTEBEL ANDRE 00:38:03 15.3 00:03:55 8Vétérans 1 911 ATHL SCRI
18 7126 TOSI IRENE 00:38:10 15.25 00:03:56 1Dames 905 JOG IN ATTITUDE
19 16 BUCKINX ETIENNE 00:38:25 15.15 00:03:58 1Vétérans 2 899 RFCL
20 19 MERCIADRI LUCA 00:38:35 15.08 00:03:59 10Séniors 894
21 7062 RAVIGNA PIERRE 00:38:39 15.06 00:03:59 1Vétérans 3 888 JOG IN ATTITUDE
22 115 GUISSART ALAIN 00:38:47 15.01 00:03:60 9Vétérans 1 883
23 164 SIRAULT RUDY 00:38:53 14.97 00:04:01 10Vétérans 1 877 HUY ATHLETIC CLUB
24 63 DANIELS JEAN-MARC 00:38:57 14.94 00:04:01 2Vétérans 2 872 RUNNERS BERNEAU
25 57 BOLLEN PASCAL 00:39:13 14.84 00:04:03 3Vétérans 2 866 SER ATHL
26 7041 SCHREURS MAXIME H 00:39:14 14.83 00:04:03 11Séniors 860
27 24 JORIS JONATHAN 00:39:22 14.78 00:04:04 12Séniors 855 SOMJA RUNNING OLNE
28 68 CHUDYBA JEAN-MARIE 00:39:24 14.77 00:04:04 4Vétérans 2 849 JOG IN ATTITUDE
29 96 THIRIFAYS DELPHINE 00:39:24 14.77 00:04:04 2Dames 844 RFCL
30 7016 WERNER DAVID 00:39:25 14.77 00:04:04 13Séniors 838 BCT
31 7068 IDRAF MOURAD 00:39:41 14.67 00:04:05 11Vétérans 1 832
32 7009 THONET LILIAN 00:39:50 14.61 00:04:06 12Vétérans 1 827 AC NEUPRE
33 7102 TRUS FABIAN 00:39:52 14.6 00:04:07 13Vétérans 1 821
34 48 HALDERS SERVAIS 00:39:55 14.58 00:04:07 2Vétérans 3 816 HF
35 7053 DEGHAYE BERNARD 00:40:00 14.55 00:04:07 5Vétérans 2 810
36 210 BOVI JEAN-LUC 00:40:02 14.54 00:04:08 14Vétérans 1 804 RFCL
37 7149 FRERES LIONEL 00:40:06 14.51 00:04:08 14Séniors 799
38 7020 NOVOCELCUK J YVES 00:40:15 14.46 00:04:09 15Vétérans 1 793
39 6 EVRARD ROLAND 00:40:31 14.36 00:04:11 15Séniors 788
40 7022 BIELEN MICHEL 00:40:49 14.26 00:04:12 6Vétérans 2 782 RFCL
41 7001 EVRARD VALERY 00:41:01 14.19 00:04:14 16Vétérans 1 777 SER ATHL
42 216 LACROIX RUDY 00:41:10 14.14 00:04:15 3Vétérans 3 771 SER ATHL
43 74 DAMBLON PATRICK 00:41:15 14.11 00:04:15 7Vétérans 2 765 CHALLENGE AVENIR
44 7045 SUDO TOMOKA 00:41:27 14.04 00:04:16 1Ainées 1 760
45 7086 LEDIEU LIONEL 00:41:29 14.03 00:04:17 16Séniors 754 JACQUIE ET MICHEL
46 7071 ACQUISTAPACE SARAH 00:41:38 13.98 00:04:18 1Espoirs D 749
47 7098 VAN DAMME MARC 00:41:39 13.97 00:04:18 17Séniors 743
48 51 KNAPEN LAURENT 00:41:48 13.92 00:04:19 4Vétérans 3 737 JOGIN ATTITUDE
49 143 JEUKENS MICHEL 00:41:49 13.92 00:04:19 17Vétérans 1 732
50 7101 TRUS HUGO 00:41:53 13.9 00:04:19 1Espoirs H 726
51 7104 CHABABE LARBI 00:41:57 13.87 00:04:19 18Vétérans 1 721 SER ATHL
52 32 RIGO MICHEL 00:42:00 13.86 00:04:20 19Vétérans 1 715
53 215 SOMJA JEAN-PHILIPPE 00:42:06 13.82 00:04:20 18Séniors 709 SOMJA RUNNING
54 7047 KEIL YVES 00:42:12 13.79 00:04:21 20Vétérans 1 704 JOG IN ATTITUDE
55 7034 LENNES PIERRE 00:42:18 13.76 00:04:22 5Vétérans 3 698 TRIGT
56 320 BARNABE MICHEL 00:42:30 13.69 00:04:23 8Vétérans 2 693 RDV RUN
57 592 FERREIRA FERNANDO 00:42:44 13.62 00:04:24 19Séniors 687
58 156 FREDERICH DOMINIQUE 00:42:46 13.61 00:04:25 1Ainées 2 682 HERVE
59 7005 DENDAL DIDIER 00:42:52 13.58 00:04:25 9Vétérans 2 676
60 34 DALLA CORTE LUDOVIC 00:42:57 13.55 00:04:26 20Séniors 670
61 36 BYNENS NICOLAS 00:43:00 13.53 00:04:26 6Vétérans 3 665 JOGGING CLUB DE JUPRELLE
62 240 NIHANT FABIAN 00:43:20 13.43 00:04:28 10Vétérans 2 659 FNJC
63 7080 PILLITTERI CARMELO 00:43:38 13.34 00:04:30 11Vétérans 2 654 WACO
64 40 CANALES ALBERTO 00:43:43 13.31 00:04:30 7Vétérans 3 648
65 7076 TRIVILINI MICHAEL 00:43:55 13.25 00:04:32 21Séniors 642 SOLIDA RUN
66 54 ROUFOSSE JOEFREY 00:44:01 13.22 00:04:32 12Vétérans 2 637 VOUS RUN
67 5 MATHOT RICHARD 00:44:05 13.2 00:04:33 8Vétérans 3 631
68 350 WEERTS JEAN 00:44:05 13.2 00:04:33 21Vétérans 1 626
69 165 FRANCOIS VALERIE 00:44:15 13.15 00:04:34 2Ainées 2 620 WACO
70 7011 BOSCOLO MANUEL 00:44:28 13.09 00:04:35 22Vétérans 1 615 JOG IN ATTITUDE
71 7036 LUPCIN BRUNO 00:44:45 13.01 00:04:37 22Séniors 609
72 159 JANS JEAN-PIERRE 00:44:53 12.97 00:04:38 9Vétérans 3 603
73 7091 SNYDERS ARTHUR 00:45:03 12.92 00:04:39 23Séniors 598 SER ATHL
74 7129 LELOUP PASCAL 00:45:04 12.91 00:04:39 23Vétérans 1 592
75 7116 SMETS FRANCIS 00:45:09 12.89 00:04:39 13Vétérans 2 587 BRS TEAM
76 7150 FALCON RAMIREZ RUBEN 00:45:30 12.79 00:04:41 24Séniors 581
77 7056 THOMAS ALEXIS 00:45:36 12.76 00:04:42 ?
78 7043 THEISMANS NICOLAS 00:45:37 12.76 00:04:42 25Séniors 575 AMAY
79 7075 DUMONT MARIANNE 00:45:54 12.68 00:04:44 2Ainées 1 570 SER ATHL
80 174 HERZET CLAUDE 00:45:56 12.67 00:04:44 10Vétérans 3 564
81 77 STEIMES NATHALIE 00:46:14 12.59 00:04:46 3Ainées 1 559 SER ATHL
82 7046 BORGS MICHEL 00:46:16 12.58 00:04:46 14Vétérans 2 553
83 125 RIBANT NATHALIE 00:46:19 12.57 00:04:46 2Espoirs D 547
84 85 LESSAIN ERIC 00:46:20 12.56 00:04:47 15Vétérans 2 542
85 170 BATTISTINI LUCIANO 00:46:23 12.55 00:04:47 11Vétérans 3 536 NEUPRE AC
86 7074 COLBACK STEPHANE 00:46:29 12.52 00:04:48 24Vétérans 1 531
87 7132 DOTHEE MARC 00:46:31 12.51 00:04:48 16Vétérans 2 525 BEAUF TEAM
88 66 LEFORT PIERRE 00:46:40 12.47 00:04:49 25Vétérans 1 520 A.M.C.
89 98 MANFÉ DIMITRI 00:47:00 12.38 00:04:51 26Séniors 514
90 70 DARCIS JOËL 00:47:02 12.37 00:04:51 27Séniors 508 RDV RUN
91 7033 CORTLEVEN WILLY 00:47:05 12.36 00:04:51 1? 503
92 7151 ORBAN ALAIN 00:47:10 12.34 00:04:52 26Vétérans 1 497
93 7105 MASSCHELEIN FABRICE 00:47:44 12.19 00:04:55 27Vétérans 1 492
94 87 TRAN XUAN-MAI 00:47:48 12.18 00:04:56 4Ainées 1 486 ACBBS
95 7144 GILLES ROBERT 00:47:54 12.15 00:04:56 17Vétérans 2 480 NEUPRE AC
96 7079 GHARBI BRAHIM 00:48:25 12.02 00:04:59 28Séniors 475
97 7143 DERWA STEVE 00:48:28 12.01 00:04:60 29Séniors 469
98 7085 CLOBERT ROMAIN 00:48:40 11.96 00:05:01 30Séniors 464 JACQUIE ET MICHEL
99 7064 DELHOGNE BERNARD 00:48:42 11.95 00:05:01 18Vétérans 2 458
100 336 EGGEN RENE 00:48:47 11.93 00:05:02 12Vétérans 3 453
101 7117 DEWAIDE J NICOLAS 00:48:50 11.92 00:05:02 28Vétérans 1 447 BXL RUN CREW
102 38 IMMERIX JEAN PIERRE 00:49:01 11.87 00:05:03 13Vétérans 3 441
103 7140 WILKIN MAXIME 00:49:30 11.76 00:05:06 31Séniors 436 JOG IN ATTITUDE
104 7087 O BRION ROLZY 00:49:32 11.75 00:05:06 29Vétérans 1 430
105 225 LETELLIER J LUC 00:49:41 11.71 00:05:07 19Vétérans 2 425
106 238 DELREZ SANDRA 00:49:45 11.7 00:05:08 5Ainées 1 419
107 33 DETHIER ALAIN 00:49:46 11.69 00:05:08 20Vétérans 2 413
108 7114 DEKETELHERE J LOUIS 00:49:48 11.69 00:05:08 30Vétérans 1 408
109 58 PIRARD SEVERINE 00:50:00 11.64 00:05:09 6Ainées 1 402 RDV RUN
110 123 PISCART FRANCOISE 00:50:05 11.62 00:05:010 7Ainées 1 397
111 7092 ISTACE GREGORY 00:50:06 11.62 00:05:010 32Séniors 391
112 109 HANUSSEK HERVÉ 00:50:09 11.61 00:05:10 33Séniors 385
113 7054 RADDOUX HUGO 00:50:10 11.6 00:05:10 14Vétérans 3 380 HWJ HOEGARDEN
114 7055 THOMAS XAVIER 00:50:20 11.56 00:05:11 31Vétérans 1 374
115 7057 TROISFONTAINES CHRISTINE 00:50:21 11.56 00:05:11 8Ainées 1 369
116 7141 WILKIN HUGUES 00:50:34 11.51 00:05:13 34Séniors 363
117 55 RONCATO FABRICE 00:50:46 11.46 00:05:14 35Séniors 358
118 25 FRANÇUS PIERRE 00:50:55 11.43 00:05:15 36Séniors 352
119 7012 LARUELLE JEREMY 00:50:57 11.42 00:05:15 37Séniors 346 HUY
120 7042 GUILLEMARD DIDIER 00:51:09 11.38 00:05:16 15Vétérans 3 341 MILL PATTES VITRE
121 41 CHARLIER PHILIPPE 00:51:13 11.36 00:05:17 21Vétérans 2 335 MUSICALBOX
122 7017 WERNER MICHEL 00:51:23 11.33 00:05:18 22Vétérans 2 330
123 7066 DETHIER LUDOVIC 00:51:30 11.3 00:05:19 38Séniors 324
124 80 FERNANDEZ HERRERA BERNARD 00:51:40 11.26 00:05:20 32Vétérans 1 318 SODEXO RUN
125 7058 THOMAS ANTOINE 00:51:45 11.25 00:05:20 2Espoirs H 313 BMFA VISE
126 7145 PARRADO MANUEL 00:51:50 11.23 00:05:21 39Séniors 307
127 7021 STEINWEG DIDIER 00:51:51 11.22 00:05:21 33Vétérans 1 302
128 7024 GRANDCHAMPS ALEXANDRE 00:51:54 11.21 00:05:21 16Vétérans 3 296
129 7115 VERBOVEN DAMIEN 00:52:01 11.19 00:05:22 40Séniors 291
130 7147 ANCION J PASCAL 00:52:03 11.18 00:05:22 23Vétérans 2 285
131 7137 HUYTS JASMINE 00:52:09 11.16 00:05:23 3Dames 279
132 79 LELOUP DOMINIQUE 00:52:11 11.15 00:05:23 3Ainées 2 274 RDV RUN
133 7089 LHOEST JEAN 00:52:11 11.15 00:05:23 17Vétérans 3 268
134 7032 VRANCKEN ISABELLE 00:52:12 11.15 00:05:23 9Ainées 1 263
135 11 BOSSELOIR ANNICK 00:52:16 11.14 00:05:23 10Ainées 1 257 RDV RUN
136 42 HERTOGEN WILLY 00:52:19 11.12 00:05:24 2? 251 BJC
137 177 VOLON PATRICK 00:53:08 10.95 00:05:29 24Vétérans 2 246
138 7049 MEYERS CHRISTIAN 00:53:21 10.91 00:05:30 18Vétérans 3 240 ZATAC
139 7139 DELARBRE PATRICK 00:53:53 10.8 00:05:33 34Vétérans 1 235
140 7138 CASTAGNETTI AURORE 00:53:53 10.8 00:05:33 4Dames 229
141 149 MAURO CALOGERO 00:54:12 10.74 00:05:35 3? 223 SER ATHL
142 7128 GILLON PATRICK 00:54:13 10.73 00:05:35 35Vétérans 1 218
143 7050 PONZO J FRANCOIS 00:54:27 10.69 00:05:37 36Vétérans 1 212 RDV RUN
144 7090 LHOEST SARAH 00:54:43 10.64 00:05:38 5Dames 207
145 7063 ACQUISTAPACE FRANCOIS 00:54:54 10.6 00:05:40 25Vétérans 2 201
146 7031 LIBERT MARC 00:55:00 10.58 00:05:40 26Vétérans 2 196
147 7094 EVAIN PHILIPPE 00:55:12 10.54 00:05:41 27Vétérans 2 190
148 7018 NOVOCELCUK ROXANE 00:55:21 10.51 00:05:42 6Dames 184
149 7038 DEFFET CHRISTIAN 00:55:26 10.5 00:05:43 37Vétérans 1 179
150 60 PETERS FABRICE 00:55:27 10.5 00:05:43 38Vétérans 1 173
151 7039 MEMURLIN OLIVIER 00:55:28 10.49 00:05:43 41Séniors 168
152 7059 PALBUS NATHAN 00:55:30 10.49 00:05:43 39Vétérans 1 162
153 7070 VOLLEBREGT BENJAMIN 00:55:30 10.49 00:05:43 42Séniors 156
154 7095 DELAHAUT PATRICIA 00:55:33 10.48 00:05:44 11Ainées 1 151
155 7023 HOSAY PERRINE 00:55:54 10.41 00:05:46 3Espoirs D 145
156 7035 SCHEFFAUT FRANCOISE 00:55:54 10.41 00:05:46 4Ainées 2 140
157 7142 CORMAN J FRANCOIS 00:56:06 10.37 00:05:47 40Vétérans 1 134
158 277 NELHIEBEL GYULA 00:56:22 10.33 00:05:49 28Vétérans 2 128
159 7118 SELVES FREDERIC 00:57:04 10.2 00:05:53 41Vétérans 1 123
160 7121 SELVES LAURENT 00:57:05 10.2 00:05:53 43Séniors 117
161 7119 SELVES MARIE 00:57:23 10.14 00:05:55 7Dames 112
162 7120 LECHIEN MARION 00:57:23 10.14 00:05:55 8Dames 106 RIWA
163 7131 PETERS PATRICK 00:58:08 10.01 00:05:60 19Vétérans 3 101
164 7096 DELFOSSE CATHY 00:58:26 9.96 00:06:01 9Dames 95
165 7136 VACHERON MARLENE 00:59:27 9.79 00:06:08 12Ainées 1 89
166 7130 PETERS M JULIE 00:59:27 9.79 00:06:08 10Dames 84
167 7007 TROISFONTAINE NOAH 00:59:45 9.74 00:06:010 ? JOG IN ATTITUDE
168 7073 BETTIOL FLORA 00:59:56 9.71 00:06:11 13Ainées 1 78
169 7134 DANTINNE PATRICIA 01:00:03 9.69 00:06:11 5Ainées 2 73
170 7123 DELRUELLE MARIE 01:00:06 9.68 00:06:12 11Dames 67
171 106 MERCIER SYLVIE 01:00:10 9.67 00:06:12 14Ainées 1 61 RDV RUN
172 7006 VANDAELE SANDRA 01:00:49 9.57 00:06:16 15Ainées 1 56
173 7097 FABBRI RAMONA 01:01:38 9.44 00:06:21 12Dames 50
174 7013 HUSSIN CAROLINE 01:02:26 9.32 00:06:26 13Dames 45
175 7103 PETITJEAN ROHNNY 01:03:31 9.16 00:06:33 29Vétérans 2 39 JOGGINGTIME.BE
176 7112 DEMOLLIN SOPHIE 01:04:10 9.07 00:06:37 16Ainées 1 34 RDV RUN
177 61 CUYX SABRINA 01:04:16 9.06 00:06:38 14Dames 28
178 72 NIJS DOMINIQUE 01:04:58 8.96 00:06:42 1Ainées 3 22 JOGGING ATTITUDE
179 7146 THOMAS FABIENNE 01:05:14 8.92 00:06:44 17Ainées 1 17
180 7008 VAN LUNTER PRISCILLA 01:08:15 8.53 00:07:02 18Ainées 1 11
181 75 CLOSSET DIDIER 01:08:30 8.5 00:07:04 42Vétérans 1 6
Corrida de Liège 2018
Distance : 9.7 kms
181 coureurs
Normal Interclubs